sensor_id;sensor_type;location;lat;lon;timestamp;temperature;humidity
53286;DHT22;39171;45.550;12.074;2023-05-07T00:04:04;20.00;70.90
53286;DHT22;39171;45.550;12.074;2023-05-07T00:10:06;19.90;71.10
53286;DHT22;39171;45.550;12.074;2023-05-07T00:16:12;20.00;71.30
53286;DHT22;39171;45.550;12.074;2023-05-07T00:22:13;19.90;71.50
53286;DHT22;39171;45.550;12.074;2023-05-07T00:28:14;19.90;71.60
53286;DHT22;39171;45.550;12.074;2023-05-07T00:34:15;19.90;71.80
53286;DHT22;39171;45.550;12.074;2023-05-07T00:40:16;19.90;71.90
53286;DHT22;39171;45.550;12.074;2023-05-07T00:46:19;19.90;72.00
53286;DHT22;39171;45.550;12.074;2023-05-07T00:52:21;19.90;72.20
53286;DHT22;39171;45.550;12.074;2023-05-07T00:58:23;19.90;72.40
53286;DHT22;39171;45.550;12.074;2023-05-07T01:04:24;19.90;72.60
53286;DHT22;39171;45.550;12.074;2023-05-07T01:10:26;19.90;72.70
53286;DHT22;39171;45.550;12.074;2023-05-07T01:16:27;19.90;72.90
53286;DHT22;39171;45.550;12.074;2023-05-07T01:22:32;19.90;73.00
53286;DHT22;39171;45.550;12.074;2023-05-07T01:28:36;19.90;73.10
53286;DHT22;39171;45.550;12.074;2023-05-07T01:34:37;19.80;73.30
53286;DHT22;39171;45.550;12.074;2023-05-07T01:40:39;19.80;73.40
53286;DHT22;39171;45.550;12.074;2023-05-07T01:46:41;19.80;73.60
53286;DHT22;39171;45.550;12.074;2023-05-07T01:52:42;19.80;73.70
53286;DHT22;39171;45.550;12.074;2023-05-07T01:58:44;19.80;73.80
53286;DHT22;39171;45.550;12.074;2023-05-07T02:04:46;19.80;73.90
53286;DHT22;39171;45.550;12.074;2023-05-07T02:10:49;19.80;74.00
53286;DHT22;39171;45.550;12.074;2023-05-07T02:16:51;19.80;74.00
53286;DHT22;39171;45.550;12.074;2023-05-07T02:22:52;19.80;74.20
53286;DHT22;39171;45.550;12.074;2023-05-07T02:28:54;19.80;74.30
53286;DHT22;39171;45.550;12.074;2023-05-07T02:34:55;19.80;74.40
53286;DHT22;39171;45.550;12.074;2023-05-07T02:40:57;19.80;74.50
53286;DHT22;39171;45.550;12.074;2023-05-07T02:46:58;19.70;74.70
53286;DHT22;39171;45.550;12.074;2023-05-07T02:53:00;19.80;74.80
53286;DHT22;39171;45.550;12.074;2023-05-07T02:59:01;19.70;74.90
53286;DHT22;39171;45.550;12.074;2023-05-07T03:05:12;19.70;75.00
53286;DHT22;39171;45.550;12.074;2023-05-07T03:11:14;19.70;75.10
53286;DHT22;39171;45.550;12.074;2023-05-07T03:17:15;19.70;75.20
53286;DHT22;39171;45.550;12.074;2023-05-07T03:23:17;19.70;75.40
53286;DHT22;39171;45.550;12.074;2023-05-07T03:29:18;19.70;75.50
53286;DHT22;39171;45.550;12.074;2023-05-07T03:35:19;19.70;75.60
53286;DHT22;39171;45.550;12.074;2023-05-07T03:41:25;19.70;75.70
53286;DHT22;39171;45.550;12.074;2023-05-07T03:47:27;19.70;75.70
53286;DHT22;39171;45.550;12.074;2023-05-07T03:53:29;19.70;75.80
53286;DHT22;39171;45.550;12.074;2023-05-07T03:59:30;19.70;75.80
53286;DHT22;39171;45.550;12.074;2023-05-07T04:05:32;19.70;75.90
53286;DHT22;39171;45.550;12.074;2023-05-07T04:11:36;19.70;76.00
53286;DHT22;39171;45.550;12.074;2023-05-07T04:17:39;19.70;76.00
53286;DHT22;39171;45.550;12.074;2023-05-07T04:23:42;19.70;76.10
53286;DHT22;39171;45.550;12.074;2023-05-07T04:29:46;19.70;76.20
53286;DHT22;39171;45.550;12.074;2023-05-07T04:35:49;19.60;76.20
53286;DHT22;39171;45.550;12.074;2023-05-07T04:41:50;19.60;76.30
53286;DHT22;39171;45.550;12.074;2023-05-07T04:47:51;19.60;76.30
53286;DHT22;39171;45.550;12.074;2023-05-07T04:53:53;19.60;76.40
53286;DHT22;39171;45.550;12.074;2023-05-07T04:59:54;19.60;76.40
53286;DHT22;39171;45.550;12.074;2023-05-07T05:05:56;19.60;76.50
53286;DHT22;39171;45.550;12.074;2023-05-07T05:12:01;19.60;76.60
53286;DHT22;39171;45.550;12.074;2023-05-07T05:18:04;19.60;76.70
53286;DHT22;39171;45.550;12.074;2023-05-07T05:24:06;19.60;76.60
53286;DHT22;39171;45.550;12.074;2023-05-07T05:30:13;19.60;76.70
53286;DHT22;39171;45.550;12.074;2023-05-07T05:36:16;19.60;76.70
53286;DHT22;39171;45.550;12.074;2023-05-07T05:42:20;19.60;76.80
53286;DHT22;39171;45.550;12.074;2023-05-07T05:48:21;19.60;76.80
53286;DHT22;39171;45.550;12.074;2023-05-07T05:54:24;19.50;76.80
53286;DHT22;39171;45.550;12.074;2023-05-07T06:00:25;19.60;76.80
53286;DHT22;39171;45.550;12.074;2023-05-07T06:06:39;19.60;76.80
53286;DHT22;39171;45.550;12.074;2023-05-07T06:12:40;19.60;76.80
53286;DHT22;39171;45.550;12.074;2023-05-07T06:18:42;19.60;76.70
53286;DHT22;39171;45.550;12.074;2023-05-07T06:24:43;19.60;76.70
53286;DHT22;39171;45.550;12.074;2023-05-07T06:30:45;19.60;76.70
53286;DHT22;39171;45.550;12.074;2023-05-07T06:36:46;19.60;76.60
53286;DHT22;39171;45.550;12.074;2023-05-07T06:43:14;19.60;76.40
53286;DHT22;39171;45.550;12.074;2023-05-07T06:49:22;19.60;76.30
53286;DHT22;39171;45.550;12.074;2023-05-07T06:55:24;19.70;76.00
53286;DHT22;39171;45.550;12.074;2023-05-07T07:01:25;19.70;76.00
53286;DHT22;39171;45.550;12.074;2023-05-07T07:07:27;19.70;75.80
53286;DHT22;39171;45.550;12.074;2023-05-07T07:13:28;19.70;75.70
53286;DHT22;39171;45.550;12.074;2023-05-07T07:19:30;19.70;75.60
53286;DHT22;39171;45.550;12.074;2023-05-07T07:25:32;19.70;75.50
53286;DHT22;39171;45.550;12.074;2023-05-07T07:31:34;19.70;75.20
53286;DHT22;39171;45.550;12.074;2023-05-07T07:37:39;19.70;75.00
53286;DHT22;39171;45.550;12.074;2023-05-07T07:43:40;19.70;74.70
53286;DHT22;39171;45.550;12.074;2023-05-07T07:49:42;19.80;74.40
53286;DHT22;39171;45.550;12.074;2023-05-07T07:55:44;19.80;74.30
53286;DHT22;39171;45.550;12.074;2023-05-07T08:01:49;19.80;73.90
53286;DHT22;39171;45.550;12.074;2023-05-07T08:07:53;19.80;73.60
53286;DHT22;39171;45.550;12.074;2023-05-07T08:14:00;19.90;73.50
53286;DHT22;39171;45.550;12.074;2023-05-07T08:20:01;19.90;73.20
53286;DHT22;39171;45.550;12.074;2023-05-07T08:26:04;19.90;72.90
53286;DHT22;39171;45.550;12.074;2023-05-07T08:32:06;20.00;72.70
53286;DHT22;39171;45.550;12.074;2023-05-07T08:38:07;20.00;72.40
53286;DHT22;39171;45.550;12.074;2023-05-07T08:44:11;20.10;72.10
53286;DHT22;39171;45.550;12.074;2023-05-07T08:50:13;20.10;71.70
53286;DHT22;39171;45.550;12.074;2023-05-07T08:56:36;20.20;71.30
53286;DHT22;39171;45.550;12.074;2023-05-07T09:02:36;20.20;71.00
53286;DHT22;39171;45.550;12.074;2023-05-07T09:08:39;20.20;70.30
53286;DHT22;39171;45.550;12.074;2023-05-07T09:14:42;20.20;69.90
53286;DHT22;39171;45.550;12.074;2023-05-07T09:20:44;20.30;69.70
53286;DHT22;39171;45.550;12.074;2023-05-07T09:26:45;20.30;69.20
53286;DHT22;39171;45.550;12.074;2023-05-07T09:32:50;20.30;69.00
53286;DHT22;39171;45.550;12.074;2023-05-07T09:38:55;20.30;68.60
53286;DHT22;39171;45.550;12.074;2023-05-07T09:44:58;20.30;68.50
53286;DHT22;39171;45.550;12.074;2023-05-07T09:51:06;20.30;68.10
53286;DHT22;39171;45.550;12.074;2023-05-07T09:57:10;20.40;67.80
53286;DHT22;39171;45.550;12.074;2023-05-07T10:03:16;20.40;67.50
53286;DHT22;39171;45.550;12.074;2023-05-07T10:09:31;20.40;66.80
53286;DHT22;39171;45.550;12.074;2023-05-07T10:15:33;20.50;66.20
53286;DHT22;39171;45.550;12.074;2023-05-07T10:21:38;20.50;65.80
53286;DHT22;39171;45.550;12.074;2023-05-07T10:27:40;20.60;65.60
53286;DHT22;39171;45.550;12.074;2023-05-07T10:33:42;20.60;65.20
53286;DHT22;39171;45.550;12.074;2023-05-07T10:39:45;20.60;65.00
53286;DHT22;39171;45.550;12.074;2023-05-07T10:58:24;20.70;64.20
53286;DHT22;39171;45.550;12.074;2023-05-07T11:04:30;20.70;64.40
53286;DHT22;39171;45.550;12.074;2023-05-07T11:10:50;20.70;64.20
53286;DHT22;39171;45.550;12.074;2023-05-07T11:17:03;20.80;64.20
53286;DHT22;39171;45.550;12.074;2023-05-07T11:23:06;20.90;64.40
53286;DHT22;39171;45.550;12.074;2023-05-07T11:29:20;20.80;64.70
53286;DHT22;39171;45.550;12.074;2023-05-07T11:35:23;20.90;64.80
53286;DHT22;39171;45.550;12.074;2023-05-07T11:41:37;20.90;64.80
53286;DHT22;39171;45.550;12.074;2023-05-07T11:47:41;21.00;64.80
53286;DHT22;39171;45.550;12.074;2023-05-07T11:53:44;21.00;64.90
53286;DHT22;39171;45.550;12.074;2023-05-07T11:59:47;21.00;65.00
53286;DHT22;39171;45.550;12.074;2023-05-07T12:05:49;21.10;65.10
53286;DHT22;39171;45.550;12.074;2023-05-07T12:11:51;21.20;65.10
53286;DHT22;39171;45.550;12.074;2023-05-07T12:17:52;21.20;65.20
53286;DHT22;39171;45.550;12.074;2023-05-07T12:23:53;21.20;65.30
53286;DHT22;39171;45.550;12.074;2023-05-07T12:29:56;21.20;65.30
53286;DHT22;39171;45.550;12.074;2023-05-07T12:35:58;21.20;65.30
53286;DHT22;39171;45.550;12.074;2023-05-07T12:42:03;21.20;65.30
53286;DHT22;39171;45.550;12.074;2023-05-07T12:48:04;21.20;65.30
53286;DHT22;39171;45.550;12.074;2023-05-07T12:54:05;21.30;65.20
53286;DHT22;39171;45.550;12.074;2023-05-07T13:00:07;21.30;64.90
53286;DHT22;39171;45.550;12.074;2023-05-07T13:06:09;21.30;64.60
53286;DHT22;39171;45.550;12.074;2023-05-07T13:12:10;21.50;64.30
53286;DHT22;39171;45.550;12.074;2023-05-07T13:18:12;21.50;64.00
53286;DHT22;39171;45.550;12.074;2023-05-07T13:24:15;21.60;63.70
53286;DHT22;39171;45.550;12.074;2023-05-07T13:30:16;21.70;63.50
53286;DHT22;39171;45.550;12.074;2023-05-07T13:36:22;21.70;63.40
53286;DHT22;39171;45.550;12.074;2023-05-07T13:42:24;21.80;63.10
53286;DHT22;39171;45.550;12.074;2023-05-07T13:48:25;21.80;62.90
53286;DHT22;39171;45.550;12.074;2023-05-07T13:54:26;21.80;62.70
53286;DHT22;39171;45.550;12.074;2023-05-07T14:00:27;21.80;62.70
53286;DHT22;39171;45.550;12.074;2023-05-07T14:06:29;21.80;62.60
53286;DHT22;39171;45.550;12.074;2023-05-07T14:12:31;21.90;62.40
53286;DHT22;39171;45.550;12.074;2023-05-07T14:18:32;21.90;62.10
53286;DHT22;39171;45.550;12.074;2023-05-07T14:24:35;21.90;61.40
53286;DHT22;39171;45.550;12.074;2023-05-07T14:30:36;21.90;61.00
53286;DHT22;39171;45.550;12.074;2023-05-07T14:36:38;21.90;60.70
53286;DHT22;39171;45.550;12.074;2023-05-07T14:42:39;21.90;60.30
53286;DHT22;39171;45.550;12.074;2023-05-07T14:48:40;21.90;60.20
53286;DHT22;39171;45.550;12.074;2023-05-07T14:54:41;21.90;59.90
53286;DHT22;39171;45.550;12.074;2023-05-07T15:00:44;21.90;59.60
53286;DHT22;39171;45.550;12.074;2023-05-07T15:06:45;21.90;59.40
53286;DHT22;39171;45.550;12.074;2023-05-07T15:12:47;21.90;59.30
53286;DHT22;39171;45.550;12.074;2023-05-07T15:18:48;21.80;59.00
53286;DHT22;39171;45.550;12.074;2023-05-07T15:24:51;21.80;58.90
53286;DHT22;39171;45.550;12.074;2023-05-07T15:30:52;21.80;58.70
53286;DHT22;39171;45.550;12.074;2023-05-07T15:36:54;21.80;58.40
53286;DHT22;39171;45.550;12.074;2023-05-07T15:42:55;21.80;58.20
53286;DHT22;39171;45.550;12.074;2023-05-07T15:48:57;21.80;57.90
53286;DHT22;39171;45.550;12.074;2023-05-07T15:54:58;21.80;57.70
53286;DHT22;39171;45.550;12.074;2023-05-07T16:01:00;21.80;57.40
53286;DHT22;39171;45.550;12.074;2023-05-07T16:07:04;21.80;57.40
53286;DHT22;39171;45.550;12.074;2023-05-07T16:13:05;21.80;57.50
53286;DHT22;39171;45.550;12.074;2023-05-07T16:19:07;21.80;57.50
53286;DHT22;39171;45.550;12.074;2023-05-07T16:25:08;21.80;57.40
53286;DHT22;39171;45.550;12.074;2023-05-07T16:31:09;21.80;57.40
53286;DHT22;39171;45.550;12.074;2023-05-07T16:37:16;21.70;57.10
53286;DHT22;39171;45.550;12.074;2023-05-07T16:43:17;21.70;57.00
53286;DHT22;39171;45.550;12.074;2023-05-07T16:49:18;21.60;57.20
53286;DHT22;39171;45.550;12.074;2023-05-07T16:55:19;21.60;57.10
53286;DHT22;39171;45.550;12.074;2023-05-07T17:01:21;21.50;57.20
53286;DHT22;39171;45.550;12.074;2023-05-07T17:07:24;21.50;57.60
53286;DHT22;39171;45.550;12.074;2023-05-07T17:13:25;21.50;57.70
53286;DHT22;39171;45.550;12.074;2023-05-07T17:19:26;21.40;58.00
53286;DHT22;39171;45.550;12.074;2023-05-07T17:25:31;21.40;58.40
53286;DHT22;39171;45.550;12.074;2023-05-07T17:31:32;21.30;58.60
53286;DHT22;39171;45.550;12.074;2023-05-07T17:37:33;21.30;58.80
53286;DHT22;39171;45.550;12.074;2023-05-07T17:43:35;21.30;59.00
53286;DHT22;39171;45.550;12.074;2023-05-07T17:49:36;21.30;59.10
53286;DHT22;39171;45.550;12.074;2023-05-07T17:55:41;21.30;59.30
53286;DHT22;39171;45.550;12.074;2023-05-07T18:01:43;21.30;59.40
53286;DHT22;39171;45.550;12.074;2023-05-07T18:07:45;21.30;59.60
53286;DHT22;39171;45.550;12.074;2023-05-07T18:13:46;21.20;59.70
53286;DHT22;39171;45.550;12.074;2023-05-07T18:19:51;21.20;59.90
53286;DHT22;39171;45.550;12.074;2023-05-07T18:25:56;21.20;60.10
53286;DHT22;39171;45.550;12.074;2023-05-07T18:31:57;21.20;60.20
53286;DHT22;39171;45.550;12.074;2023-05-07T18:37:58;21.20;60.40
53286;DHT22;39171;45.550;12.074;2023-05-07T18:44:00;21.10;60.60
53286;DHT22;39171;45.550;12.074;2023-05-07T18:50:01;21.10;60.70
53286;DHT22;39171;45.550;12.074;2023-05-07T18:56:02;21.10;60.90
53286;DHT22;39171;45.550;12.074;2023-05-07T19:02:04;21.10;61.10
53286;DHT22;39171;45.550;12.074;2023-05-07T19:08:05;21.10;61.30
53286;DHT22;39171;45.550;12.074;2023-05-07T19:14:10;21.10;61.50
53286;DHT22;39171;45.550;12.074;2023-05-07T19:20:11;21.00;61.70
53286;DHT22;39171;45.550;12.074;2023-05-07T19:26:13;21.00;61.90
53286;DHT22;39171;45.550;12.074;2023-05-07T19:32:14;21.00;62.00
53286;DHT22;39171;45.550;12.074;2023-05-07T19:38:16;21.00;62.10
53286;DHT22;39171;45.550;12.074;2023-05-07T19:44:18;21.00;62.20
53286;DHT22;39171;45.550;12.074;2023-05-07T19:50:19;20.90;62.30
53286;DHT22;39171;45.550;12.074;2023-05-07T19:56:20;21.00;62.30
53286;DHT22;39171;45.550;12.074;2023-05-07T20:02:22;20.90;62.40
53286;DHT22;39171;45.550;12.074;2023-05-07T20:08:23;20.90;62.50
53286;DHT22;39171;45.550;12.074;2023-05-07T20:14:25;20.90;62.50
53286;DHT22;39171;45.550;12.074;2023-05-07T20:20:29;20.80;62.60
53286;DHT22;39171;45.550;12.074;2023-05-07T20:26:35;20.80;62.70
53286;DHT22;39171;45.550;12.074;2023-05-07T20:32:36;20.80;62.80
53286;DHT22;39171;45.550;12.074;2023-05-07T20:38:37;20.80;62.80
53286;DHT22;39171;45.550;12.074;2023-05-07T20:44:38;20.80;62.90
53286;DHT22;39171;45.550;12.074;2023-05-07T20:50:39;20.80;63.00
53286;DHT22;39171;45.550;12.074;2023-05-07T20:56:41;20.80;63.00
53286;DHT22;39171;45.550;12.074;2023-05-07T21:02:42;20.80;63.10
53286;DHT22;39171;45.550;12.074;2023-05-07T21:08:44;20.70;63.20
53286;DHT22;39171;45.550;12.074;2023-05-07T21:14:45;20.80;63.20
53286;DHT22;39171;45.550;12.074;2023-05-07T21:20:46;20.70;63.30
53286;DHT22;39171;45.550;12.074;2023-05-07T21:26:47;20.70;63.40
53286;DHT22;39171;45.550;12.074;2023-05-07T21:32:48;20.70;63.60
53286;DHT22;39171;45.550;12.074;2023-05-07T21:38:50;20.70;63.80
53286;DHT22;39171;45.550;12.074;2023-05-07T21:44:51;20.70;64.10
53286;DHT22;39171;45.550;12.074;2023-05-07T21:50:59;20.70;64.30
53286;DHT22;39171;45.550;12.074;2023-05-07T21:57:01;20.70;64.60
53286;DHT22;39171;45.550;12.074;2023-05-07T22:03:02;20.70;64.80
53286;DHT22;39171;45.550;12.074;2023-05-07T22:09:05;20.60;65.10
53286;DHT22;39171;45.550;12.074;2023-05-07T22:15:07;20.70;65.30
53286;DHT22;39171;45.550;12.074;2023-05-07T22:21:09;20.70;65.60
53286;DHT22;39171;45.550;12.074;2023-05-07T22:27:10;20.70;65.80
53286;DHT22;39171;45.550;12.074;2023-05-07T22:33:11;20.60;66.00
53286;DHT22;39171;45.550;12.074;2023-05-07T22:39:13;20.70;66.40
53286;DHT22;39171;45.550;12.074;2023-05-07T22:45:14;20.60;66.60
53286;DHT22;39171;45.550;12.074;2023-05-07T22:51:16;20.60;66.80
53286;DHT22;39171;45.550;12.074;2023-05-07T22:57:19;20.60;67.20
53286;DHT22;39171;45.550;12.074;2023-05-07T23:03:20;20.60;67.40
53286;DHT22;39171;45.550;12.074;2023-05-07T23:09:21;20.60;67.60
53286;DHT22;39171;45.550;12.074;2023-05-07T23:15:22;20.60;67.90
53286;DHT22;39171;45.550;12.074;2023-05-07T23:21:24;20.60;68.00
53286;DHT22;39171;45.550;12.074;2023-05-07T23:27:25;20.60;68.20
53286;DHT22;39171;45.550;12.074;2023-05-07T23:33:26;20.60;68.30
53286;DHT22;39171;45.550;12.074;2023-05-07T23:39:27;20.60;68.40
53286;DHT22;39171;45.550;12.074;2023-05-07T23:45:29;20.60;68.60
53286;DHT22;39171;45.550;12.074;2023-05-07T23:51:30;20.50;68.80
53286;DHT22;39171;45.550;12.074;2023-05-07T23:57:32;20.60;69.00
